createdAt,value
2017-09-14T00:00:16.206Z,12.10
2017-09-14T00:02:44.720Z,12.20
2017-09-14T00:05:12.256Z,12.20
2017-09-14T00:07:39.819Z,12.30
2017-09-14T00:10:07.360Z,12.40
2017-09-14T00:12:35.881Z,12.50
2017-09-14T00:15:03.456Z,12.50
2017-09-14T00:17:30.991Z,12.60
2017-09-14T00:19:58.570Z,12.70
2017-09-14T00:22:26.225Z,12.70
2017-09-14T00:24:53.782Z,12.70
2017-09-14T00:27:21.316Z,12.70
2017-09-14T00:29:49.630Z,12.60
2017-09-14T00:32:17.158Z,12.60
2017-09-14T00:34:45.585Z,12.70
2017-09-14T00:37:13.131Z,12.70
2017-09-14T00:39:40.827Z,12.70
2017-09-14T00:42:08.359Z,12.60
2017-09-14T00:44:35.895Z,12.50
2017-09-14T00:47:03.459Z,12.50
2017-09-14T00:49:30.987Z,12.50
2017-09-14T00:51:58.610Z,12.50
2017-09-14T00:54:26.144Z,12.50
2017-09-14T00:56:53.722Z,12.40
2017-09-14T00:59:21.264Z,12.40
2017-09-14T01:01:48.818Z,12.40
2017-09-14T01:04:16.512Z,12.40
2017-09-14T01:06:44.070Z,12.40
2017-09-14T01:09:11.627Z,12.40
2017-09-14T01:11:39.154Z,12.40
2017-09-14T01:14:25.226Z,12.20
2017-09-14T01:16:52.769Z,12.20
2017-09-14T01:19:21.118Z,12.20
2017-09-14T01:21:48.679Z,12.20
2017-09-14T01:24:16.231Z,12.20
2017-09-14T01:26:43.762Z,12.10
2017-09-14T01:29:12.059Z,12.10
2017-09-14T01:31:39.640Z,12.00
2017-09-14T01:34:07.209Z,12.00
2017-09-14T01:36:34.759Z,12.00
2017-09-14T01:39:02.295Z,11.90
2017-09-14T01:41:29.886Z,11.90
2017-09-14T01:43:57.447Z,11.80
2017-09-14T01:46:25.018Z,11.70
2017-09-14T01:48:52.607Z,11.70
2017-09-14T01:51:20.191Z,11.70
2017-09-14T01:53:47.856Z,11.70
2017-09-14T01:56:15.437Z,11.60
2017-09-14T01:58:43.894Z,11.60
2017-09-14T02:01:11.603Z,11.60
2017-09-14T02:03:40.039Z,11.60
2017-09-14T02:06:07.770Z,11.60
2017-09-14T02:08:35.372Z,11.60
2017-09-14T02:11:03.062Z,11.50
2017-09-14T02:13:31.534Z,11.40
2017-09-14T02:15:59.927Z,11.40
2017-09-14T02:18:28.359Z,11.40
2017-09-14T02:20:55.975Z,11.30
2017-09-14T02:23:23.763Z,11.30
2017-09-14T02:25:51.427Z,11.30
2017-09-14T02:28:19.599Z,11.30
2017-09-14T02:30:47.177Z,11.30
2017-09-14T02:33:14.762Z,11.20
2017-09-14T02:35:42.455Z,11.20
2017-09-14T02:38:10.821Z,11.20
2017-09-14T02:40:38.372Z,11.20
2017-09-14T02:43:06.774Z,11.20
2017-09-14T02:45:35.126Z,11.20
2017-09-14T02:48:02.675Z,11.10
2017-09-14T02:50:30.243Z,11.10
2017-09-14T02:55:29.919Z,11.00
2017-09-14T02:57:58.235Z,11.00
2017-09-14T03:00:25.780Z,11.00
2017-09-14T03:02:53.348Z,11.00
2017-09-14T03:05:20.884Z,11.00
2017-09-14T03:07:55.212Z,11.00
2017-09-14T03:10:22.815Z,11.00
2017-09-14T03:12:50.382Z,11.00
2017-09-14T03:15:18.040Z,11.00
2017-09-14T03:17:45.600Z,10.90
2017-09-14T03:20:13.144Z,10.90
2017-09-14T03:22:40.693Z,10.90
2017-09-14T03:25:08.254Z,10.90
2017-09-14T03:27:35.782Z,10.80
2017-09-14T03:30:04.199Z,10.80
2017-09-14T03:32:31.750Z,10.70
2017-09-14T03:34:59.326Z,10.80
2017-09-14T03:37:26.865Z,10.70
2017-09-14T03:39:54.399Z,10.70
2017-09-14T03:42:22.028Z,10.70
2017-09-14T03:44:49.566Z,10.80
2017-09-14T03:47:17.099Z,10.80
2017-09-14T03:49:45.404Z,10.70
2017-09-14T03:52:12.974Z,10.70
2017-09-14T03:54:40.546Z,10.70
2017-09-14T03:57:08.110Z,10.60
2017-09-14T03:59:35.649Z,10.70
2017-09-14T04:02:03.239Z,10.70
2017-09-14T04:04:30.798Z,10.60
2017-09-14T04:06:58.343Z,10.60
2017-09-14T04:09:25.875Z,10.60
2017-09-14T04:11:54.194Z,10.60
2017-09-14T04:14:21.878Z,10.60
2017-09-14T04:16:49.426Z,10.60
2017-09-14T04:19:17.066Z,10.60
2017-09-14T04:21:52.670Z,10.60
2017-09-14T04:24:20.239Z,10.60
2017-09-14T04:26:47.850Z,10.60
2017-09-14T04:29:15.536Z,10.60
2017-09-14T04:31:43.179Z,10.60
2017-09-14T04:34:11.051Z,10.60
2017-09-14T04:36:38.615Z,10.60
2017-09-14T04:39:06.150Z,10.60
2017-09-14T04:41:33.710Z,10.60
2017-09-14T04:44:01.295Z,10.60
2017-09-14T04:46:28.955Z,10.60
2017-09-14T04:48:56.519Z,10.60
2017-09-14T04:51:24.082Z,10.60
2017-09-14T04:53:51.614Z,10.60
2017-09-14T04:56:19.183Z,10.60
2017-09-14T04:58:46.759Z,10.60
2017-09-14T05:01:15.120Z,10.60
2017-09-14T05:03:42.666Z,10.60
2017-09-14T05:06:10.259Z,10.60
2017-09-14T05:08:37.802Z,10.70
2017-09-14T05:11:05.379Z,10.70
2017-09-14T05:13:32.940Z,10.70
2017-09-14T05:16:00.491Z,10.80
2017-09-14T05:18:28.169Z,10.80
2017-09-14T05:20:55.712Z,10.80
2017-09-14T05:23:23.286Z,10.80
2017-09-14T05:25:50.845Z,10.90
2017-09-14T05:28:18.708Z,10.90
2017-09-14T05:30:46.286Z,10.90
2017-09-14T05:33:13.825Z,10.90
2017-09-14T05:35:41.395Z,10.90
2017-09-14T05:38:09.051Z,10.90
2017-09-14T05:40:36.599Z,10.90
2017-09-14T05:43:04.212Z,11.00
2017-09-14T05:45:32.243Z,11.00
2017-09-14T05:47:59.815Z,11.20
2017-09-14T05:50:27.523Z,11.20
2017-09-14T05:52:55.835Z,11.30
2017-09-14T05:55:23.412Z,11.30
2017-09-14T05:57:50.974Z,11.40
2017-09-14T06:00:18.535Z,11.40
2017-09-14T06:02:46.194Z,11.30
2017-09-14T06:05:13.732Z,11.40
2017-09-14T06:07:41.318Z,11.40
2017-09-14T06:10:08.858Z,11.40
2017-09-14T06:12:36.412Z,11.50
2017-09-14T06:15:03.951Z,11.50
2017-09-14T06:17:32.295Z,11.50
2017-09-14T06:19:59.831Z,11.50
2017-09-14T06:22:27.396Z,11.50
2017-09-14T06:24:54.962Z,11.60
2017-09-14T06:27:22.530Z,11.60
2017-09-14T06:29:50.100Z,11.70
2017-09-14T06:32:17.650Z,11.90
2017-09-14T06:34:45.210Z,11.90
2017-09-14T06:51:38.178Z,11.90
2017-09-14T06:54:05.727Z,12.00
2017-09-14T06:56:33.267Z,12.00
2017-09-14T06:59:00.842Z,12.00
2017-09-14T07:01:28.409Z,12.00
2017-09-14T07:03:55.947Z,11.90
2017-09-14T07:06:23.518Z,12.10
2017-09-14T07:08:51.058Z,12.40
2017-09-14T07:11:18.631Z,12.90
2017-09-14T07:13:46.170Z,13.10
2017-09-14T07:16:14.476Z,12.60
2017-09-14T07:18:42.056Z,12.60
2017-09-14T07:21:09.619Z,12.40
2017-09-14T07:23:37.175Z,12.50
2017-09-14T07:26:04.728Z,12.60
2017-09-14T07:28:32.280Z,12.70
2017-09-14T07:30:59.851Z,12.50
2017-09-14T07:33:27.430Z,12.40
2017-09-14T07:35:55.816Z,12.40
2017-09-14T07:38:23.369Z,12.50
2017-09-14T07:40:50.906Z,12.50
2017-09-14T07:43:18.471Z,12.70
2017-09-14T07:45:46.035Z,13.00
2017-09-14T07:48:13.782Z,13.10
2017-09-14T07:50:41.356Z,12.80
2017-09-14T07:53:08.911Z,12.80
2017-09-14T07:55:36.443Z,12.80
2017-09-14T07:58:04.744Z,13.40
2017-09-14T08:00:32.326Z,13.40
2017-09-14T08:02:59.881Z,14.20
2017-09-14T08:05:27.439Z,14.30
2017-09-14T08:07:54.999Z,14.20
2017-09-14T08:10:22.563Z,14.30
2017-09-14T08:12:50.122Z,16.20
2017-09-14T08:15:17.682Z,17.10
2017-09-14T08:17:45.239Z,16.80
2017-09-14T08:20:12.903Z,15.50
2017-09-14T08:22:40.564Z,15.00
2017-09-14T08:25:08.139Z,14.70
2017-09-14T08:27:35.692Z,14.60
2017-09-14T08:30:03.255Z,14.50
2017-09-14T08:32:30.905Z,14.00
2017-09-14T08:34:58.476Z,13.90
2017-09-14T08:37:26.036Z,13.70
2017-09-14T08:39:53.599Z,13.60
2017-09-14T08:42:21.156Z,13.50
2017-09-14T08:44:48.688Z,13.60
2017-09-14T08:47:16.279Z,13.80
2017-09-14T08:49:43.811Z,13.90
2017-09-14T08:52:11.351Z,13.90
2017-09-14T08:54:39.651Z,14.20
2017-09-14T08:57:07.180Z,14.10
2017-09-14T08:59:34.799Z,14.10
2017-09-14T09:02:02.328Z,14.20
2017-09-14T09:04:29.887Z,14.30
2017-09-14T09:06:58.200Z,14.60
2017-09-14T09:09:25.762Z,14.60
2017-09-14T09:11:53.320Z,14.90
2017-09-14T09:14:20.854Z,15.00
2017-09-14T09:16:48.442Z,14.90
2017-09-14T09:19:15.979Z,14.80
2017-09-14T09:21:43.559Z,14.80
2017-09-14T09:24:11.092Z,14.70
2017-09-14T09:26:38.651Z,14.90
2017-09-14T09:29:06.954Z,14.80
2017-09-14T09:31:34.522Z,14.70
2017-09-14T09:34:08.467Z,14.90
2017-09-14T09:36:36.112Z,15.00
2017-09-14T09:39:03.663Z,15.00
2017-09-14T09:41:31.200Z,14.90
2017-09-14T09:43:58.776Z,14.70
2017-09-14T09:46:26.339Z,14.80
2017-09-14T09:48:53.870Z,14.60
2017-09-14T09:51:21.403Z,14.70
2017-09-14T09:53:49.113Z,14.80
2017-09-14T09:56:16.675Z,14.90
2017-09-14T09:58:44.247Z,15.00
2017-09-14T10:01:11.783Z,15.10
2017-09-14T10:03:39.363Z,15.20
2017-09-14T10:06:07.031Z,15.20
2017-09-14T10:08:34.592Z,15.10
2017-09-14T10:11:02.122Z,14.90
2017-09-14T10:13:29.655Z,14.70
2017-09-14T10:15:57.271Z,14.40
2017-09-14T10:18:24.835Z,14.20
2017-09-14T10:20:52.391Z,14.10
2017-09-14T10:23:19.934Z,14.00
2017-09-14T10:25:47.503Z,13.90
2017-09-14T10:28:15.045Z,14.00
2017-09-14T10:30:42.620Z,13.90
2017-09-14T10:33:10.180Z,13.70
2017-09-14T10:35:37.757Z,13.00
2017-09-14T10:38:05.294Z,12.50
2017-09-14T10:40:32.831Z,12.20
2017-09-14T10:43:01.183Z,12.10
2017-09-14T10:45:28.719Z,12.00
2017-09-14T10:47:56.281Z,12.10
2017-09-14T10:50:23.806Z,12.30
2017-09-14T10:52:51.394Z,12.40
2017-09-14T10:55:18.926Z,12.60
2017-09-14T10:57:46.478Z,12.80
2017-09-14T11:00:15.005Z,13.00
2017-09-14T11:02:42.571Z,13.00
2017-09-14T11:05:10.099Z,13.20
2017-09-14T11:07:37.627Z,13.10
2017-09-14T11:10:05.159Z,13.00
2017-09-14T11:12:32.692Z,13.00
2017-09-14T11:15:00.238Z,13.10
2017-09-14T11:17:27.774Z,13.30
2017-09-14T11:19:56.203Z,13.30
2017-09-14T11:22:23.734Z,13.20
2017-09-14T11:24:51.295Z,13.20
2017-09-14T11:27:18.823Z,13.30
2017-09-14T11:29:46.387Z,13.20
2017-09-14T11:32:14.011Z,13.10
2017-09-14T11:34:41.573Z,12.90
2017-09-14T11:37:09.132Z,12.90
2017-09-14T11:39:36.666Z,12.80
2017-09-14T11:42:04.262Z,12.70
2017-09-14T11:47:06.054Z,12.70
2017-09-14T11:49:33.723Z,12.80
2017-09-14T11:52:01.284Z,12.90
2017-09-14T11:54:28.927Z,13.30
2017-09-14T11:56:56.595Z,13.60
2017-09-14T11:59:24.142Z,14.00
2017-09-14T12:01:51.711Z,14.10
2017-09-14T12:04:19.239Z,14.50
2017-09-14T12:06:46.826Z,14.70
2017-09-14T12:09:14.387Z,14.70
2017-09-14T12:11:41.910Z,14.80
2017-09-14T12:14:10.227Z,14.80
2017-09-14T12:16:37.759Z,14.80
2017-09-14T12:19:05.341Z,14.60
2017-09-14T12:21:32.883Z,14.30
2017-09-14T12:24:00.474Z,14.30
2017-09-14T12:26:28.004Z,14.30
2017-09-14T12:28:55.572Z,14.40
2017-09-14T12:31:23.150Z,14.30
2017-09-14T12:33:50.683Z,14.50
2017-09-14T12:36:18.276Z,14.70
2017-09-14T12:38:45.807Z,14.70
2017-09-14T12:41:13.395Z,14.50
2017-09-14T12:43:40.930Z,14.30
2017-09-14T12:46:08.488Z,14.40
2017-09-14T12:48:36.295Z,14.30
2017-09-14T12:51:04.612Z,14.50
2017-09-14T12:53:32.191Z,14.50
2017-09-14T12:55:59.759Z,14.70
2017-09-14T12:58:27.313Z,14.90
2017-09-14T13:00:55.107Z,15.00
2017-09-14T13:03:23.474Z,15.00
2017-09-14T13:05:51.826Z,15.10
2017-09-14T13:08:19.399Z,15.10
2017-09-14T13:10:47.003Z,15.50
2017-09-14T13:13:15.351Z,15.20
2017-09-14T13:15:42.906Z,15.20
2017-09-14T13:18:10.937Z,15.20
2017-09-14T13:20:38.599Z,15.30
2017-09-14T13:23:06.383Z,15.30
2017-09-14T13:25:34.022Z,15.30
2017-09-14T13:28:01.626Z,15.10
2017-09-14T13:30:29.968Z,15.10
2017-09-14T13:32:57.556Z,15.10
2017-09-14T13:35:25.107Z,15.30
2017-09-14T13:37:52.683Z,15.50
2017-09-14T13:40:20.425Z,15.60
2017-09-14T13:42:48.060Z,15.20
2017-09-14T13:45:17.474Z,15.30
2017-09-14T13:47:45.466Z,15.60
2017-09-14T13:59:39.634Z,15.80
2017-09-14T14:02:11.867Z,16.00
2017-09-14T14:10:41.232Z,15.00
2017-09-14T14:13:32.481Z,14.90
2017-09-14T14:28:47.655Z,14.20
2017-09-14T14:31:33.107Z,13.90
2017-09-14T14:34:12.656Z,13.60
2017-09-14T15:24:40.863Z,13.90
2017-09-14T15:29:51.341Z,14.00
2017-09-14T15:32:18.962Z,14.00
2017-09-14T15:34:46.532Z,13.80
2017-09-14T15:37:20.472Z,13.70
2017-09-14T15:39:53.782Z,13.70
2017-09-14T15:42:27.068Z,13.70
2017-09-14T15:45:00.214Z,13.50
2017-09-14T15:47:27.830Z,13.50
2017-09-14T15:50:01.164Z,13.50
2017-09-14T15:52:28.734Z,13.50
2017-09-14T15:54:57.123Z,12.80
2017-09-14T15:57:25.460Z,12.40
2017-09-14T15:59:53.016Z,12.40
2017-09-14T16:02:20.577Z,12.20
2017-09-14T16:04:48.139Z,11.90
2017-09-14T16:07:15.705Z,11.70
2017-09-14T16:09:43.295Z,11.80
2017-09-14T16:12:10.835Z,11.80
2017-09-14T16:14:38.375Z,11.90
2017-09-14T16:17:05.948Z,11.90
2017-09-14T16:19:33.498Z,11.80
2017-09-14T16:22:01.071Z,11.80
2017-09-14T16:24:28.614Z,11.70
2017-09-14T16:26:56.149Z,11.70
2017-09-14T16:29:23.702Z,11.70
2017-09-14T16:31:51.310Z,11.80
2017-09-14T16:34:18.872Z,11.70
2017-09-14T16:36:46.449Z,11.60
2017-09-14T16:39:14.039Z,11.50
2017-09-14T16:41:42.389Z,11.50
2017-09-14T16:44:09.979Z,11.50
2017-09-14T17:01:16.809Z,11.20
2017-09-14T17:03:44.369Z,11.20
2017-09-14T17:06:11.926Z,11.20
2017-09-14T17:08:39.485Z,11.20
2017-09-14T17:11:07.063Z,11.20
2017-09-14T17:13:34.678Z,11.20
2017-09-14T17:16:03.081Z,11.20
2017-09-14T17:18:30.627Z,11.20
2017-09-14T17:20:58.195Z,11.20
2017-09-14T17:23:25.730Z,11.10
2017-09-14T17:25:54.085Z,11.10
2017-09-14T17:28:21.630Z,11.00
2017-09-14T17:30:49.162Z,11.00
2017-09-14T17:33:16.706Z,11.00
2017-09-14T17:35:44.246Z,11.00
2017-09-14T17:38:12.551Z,11.00
2017-09-14T17:40:40.085Z,10.90
2017-09-14T17:43:07.619Z,11.00
2017-09-14T17:45:35.163Z,10.90
2017-09-14T17:48:02.723Z,10.90
2017-09-14T17:50:30.273Z,11.00
2017-09-14T17:52:57.874Z,10.90
2017-09-14T17:55:25.439Z,10.90
2017-09-14T17:57:53.000Z,11.00
2017-09-14T18:00:21.323Z,11.00
2017-09-14T18:02:48.919Z,10.90
2017-09-14T18:05:16.539Z,10.90
2017-09-14T18:07:44.078Z,10.90
2017-09-14T18:10:12.405Z,10.90
2017-09-14T18:12:39.956Z,10.80
2017-09-14T18:15:07.504Z,10.80
2017-09-14T18:17:35.039Z,10.80
2017-09-14T18:20:03.372Z,10.80
2017-09-14T18:22:30.912Z,10.80
2017-09-14T18:24:58.490Z,10.80
2017-09-14T18:27:26.072Z,10.80
2017-09-14T18:29:53.656Z,10.80
2017-09-14T18:32:22.031Z,11.00
2017-09-14T18:34:49.566Z,11.00
2017-09-14T18:37:17.098Z,10.90
2017-09-14T18:39:44.702Z,10.90
2017-09-14T18:42:12.398Z,10.90
2017-09-14T18:44:39.947Z,10.90
2017-09-14T18:47:07.507Z,11.00
2017-09-14T18:49:35.147Z,10.90
2017-09-14T18:52:02.706Z,11.00
2017-09-14T18:54:30.264Z,11.00
2017-09-14T18:56:57.938Z,11.00
2017-09-14T18:59:25.605Z,11.00
2017-09-14T19:01:53.182Z,11.00
2017-09-14T19:04:20.926Z,11.00
2017-09-14T19:06:48.471Z,10.90
2017-09-14T19:09:16.064Z,11.00
2017-09-14T19:11:43.614Z,11.00
2017-09-14T19:14:11.158Z,11.10
2017-09-14T19:16:38.695Z,11.10
2017-09-14T19:19:06.259Z,11.20
2017-09-14T19:21:33.792Z,11.20
2017-09-14T19:24:02.227Z,11.20
2017-09-14T19:26:29.749Z,11.20
2017-09-14T19:28:57.336Z,11.20
2017-09-14T19:31:24.916Z,11.20
2017-09-14T19:33:52.512Z,11.20
2017-09-14T19:36:20.125Z,11.20
2017-09-14T19:38:47.665Z,11.20
2017-09-14T19:41:15.276Z,11.30
2017-09-14T19:43:42.826Z,11.30
2017-09-14T19:46:10.356Z,11.30
2017-09-14T19:48:37.938Z,11.30
2017-09-14T19:51:05.498Z,11.30
2017-09-14T19:53:33.049Z,11.40
2017-09-14T19:56:00.720Z,11.40
2017-09-14T19:58:28.249Z,11.40
2017-09-14T20:00:55.812Z,11.40
2017-09-14T20:03:23.354Z,11.50
2017-09-14T20:05:51.682Z,11.60
2017-09-14T20:08:19.979Z,11.60
2017-09-14T20:10:47.570Z,11.60
2017-09-14T20:13:15.874Z,11.60
2017-09-14T20:15:43.443Z,11.60
2017-09-14T20:18:10.969Z,11.60
2017-09-14T20:20:38.506Z,11.60
2017-09-14T20:23:06.143Z,11.60
2017-09-14T20:25:33.696Z,11.70
2017-09-14T20:28:01.263Z,11.70
2017-09-14T20:30:28.860Z,11.70
2017-09-14T20:32:56.423Z,11.70
2017-09-14T20:35:23.959Z,11.80
2017-09-14T20:37:51.531Z,11.80
2017-09-14T20:40:19.078Z,11.80
2017-09-14T20:42:46.643Z,11.80
2017-09-14T20:45:14.198Z,11.90
2017-09-14T20:47:41.771Z,11.90
2017-09-14T20:50:09.305Z,11.90
2017-09-14T20:52:36.855Z,11.90
2017-09-14T20:55:16.989Z,12.00
2017-09-14T20:57:44.531Z,12.00
2017-09-14T21:00:12.101Z,12.00
2017-09-14T21:02:40.421Z,12.00
2017-09-14T21:05:08.006Z,11.90
2017-09-14T21:07:35.542Z,12.00
2017-09-14T21:10:03.107Z,12.00
2017-09-14T21:12:30.640Z,12.00
2017-09-14T21:14:58.966Z,12.00
2017-09-14T21:17:26.514Z,12.00
2017-09-14T21:19:54.187Z,12.10
2017-09-14T21:22:21.756Z,12.10
2017-09-14T21:24:49.318Z,12.10
2017-09-14T21:27:16.967Z,12.10
2017-09-14T21:29:44.538Z,12.10
2017-09-14T21:32:12.098Z,12.20
2017-09-14T21:34:39.763Z,12.20
2017-09-14T21:37:07.336Z,12.20
2017-09-14T21:39:34.899Z,12.20
2017-09-14T21:42:02.439Z,12.20
2017-09-14T21:44:29.970Z,12.20
2017-09-14T21:46:58.276Z,12.10
2017-09-14T21:49:25.881Z,12.10
2017-09-14T21:51:53.431Z,12.10
2017-09-14T21:54:20.998Z,12.10
2017-09-14T21:56:48.659Z,12.10
2017-09-14T21:59:16.195Z,12.10
2017-09-14T22:01:43.779Z,12.10
2017-09-14T22:04:12.148Z,12.10
2017-09-14T22:06:39.724Z,12.10
2017-09-14T22:09:07.358Z,12.10
2017-09-14T22:11:34.940Z,12.10
2017-09-14T22:14:02.595Z,12.10
2017-09-14T22:16:30.146Z,12.10
2017-09-14T22:18:57.743Z,12.10
2017-09-14T22:21:25.378Z,12.10
2017-09-14T22:23:52.941Z,12.10
2017-09-14T22:26:20.502Z,12.10
2017-09-14T22:28:48.149Z,12.10
2017-09-14T22:31:15.719Z,12.10
2017-09-14T22:33:43.480Z,12.10
2017-09-14T22:36:11.078Z,12.10
2017-09-14T22:38:38.710Z,12.10
2017-09-14T22:41:06.265Z,12.10
2017-09-14T22:43:33.799Z,12.10
2017-09-14T22:46:01.323Z,12.10
2017-09-14T22:48:28.910Z,12.10
2017-09-14T22:50:56.471Z,12.10
2017-09-14T22:53:24.126Z,12.10
2017-09-14T22:55:51.655Z,12.10
2017-09-14T22:58:20.070Z,12.10
2017-09-14T23:00:47.638Z,12.10
2017-09-14T23:03:15.199Z,12.10
2017-09-14T23:05:42.747Z,12.10
2017-09-14T23:08:10.315Z,12.10
2017-09-14T23:10:37.974Z,12.10
2017-09-14T23:13:05.511Z,12.10
2017-09-14T23:15:33.116Z,12.10
2017-09-14T23:18:00.652Z,12.00
2017-09-14T23:20:28.207Z,12.10
2017-09-14T23:22:55.796Z,12.00
2017-09-14T23:25:23.357Z,12.00
2017-09-14T23:27:50.914Z,12.00
2017-09-14T23:30:18.448Z,12.00
2017-09-14T23:32:45.983Z,12.00
2017-09-14T23:35:14.285Z,12.10
2017-09-14T23:37:41.826Z,12.10
2017-09-14T23:40:10.183Z,12.10
2017-09-14T23:42:38.514Z,12.10
2017-09-14T23:45:06.043Z,12.00
2017-09-14T23:47:34.459Z,12.10
2017-09-14T23:50:02.396Z,12.00
2017-09-14T23:52:30.704Z,12.10
2017-09-14T23:54:58.267Z,12.10
2017-09-14T23:57:25.800Z,12.10
2017-09-14T23:59:53.332Z,12.10
